createdAt,value
2022-12-08T00:04:18.893Z,5.76
2022-12-08T00:09:22.212Z,5.61
2022-12-08T00:14:28.528Z,5.61
2022-12-08T00:19:32.311Z,5.74
2022-12-08T00:24:39.763Z,5.51
2022-12-08T00:29:45.798Z,5.27
2022-12-08T00:34:49.217Z,5.44
2022-12-08T00:39:52.225Z,5.44
2022-12-08T00:44:55.231Z,5.56
2022-12-08T00:49:58.233Z,4.35
2022-12-08T00:55:01.240Z,4.80
2022-12-08T01:00:05.270Z,5.36
2022-12-08T01:05:08.792Z,5.54
2022-12-08T01:10:11.696Z,5.71
2022-12-08T01:15:14.503Z,5.39
2022-12-08T01:20:17.605Z,4.47
2022-12-08T01:25:20.509Z,4.78
2022-12-08T01:30:23.630Z,5.10
2022-12-08T01:35:26.730Z,5.16
2022-12-08T01:40:29.731Z,5.56
2022-12-08T01:45:33.249Z,5.87
2022-12-08T01:50:37.566Z,4.95
2022-12-08T01:55:55.335Z,4.50
2022-12-08T02:00:58.489Z,5.15
2022-12-08T02:06:03.124Z,5.33
2022-12-08T02:11:09.638Z,5.62
2022-12-08T02:16:38.765Z,5.51
2022-12-08T02:21:51.945Z,5.59
2022-12-08T02:27:13.802Z,5.39
2022-12-08T02:32:37.075Z,5.14
2022-12-08T02:38:02.000Z,5.08
2022-12-08T02:43:16.779Z,4.85
2022-12-08T02:48:19.886Z,4.82
2022-12-08T02:53:22.902Z,4.62
2022-12-08T02:58:50.579Z,4.66
2022-12-08T03:04:14.781Z,4.53
2022-12-08T03:09:24.791Z,4.47
2022-12-08T03:14:30.015Z,4.72
2022-12-08T03:19:38.955Z,4.75
2022-12-08T03:24:45.444Z,4.79
2022-12-08T03:29:51.012Z,4.54
2022-12-08T03:34:56.065Z,4.49
2022-12-08T03:39:58.969Z,4.25
2022-12-08T03:45:01.976Z,3.90
2022-12-08T03:50:06.381Z,3.96
2022-12-08T03:55:10.241Z,3.90
2022-12-08T04:00:16.113Z,3.99
2022-12-08T04:05:19.020Z,3.90
2022-12-08T04:10:22.126Z,3.87
2022-12-08T04:15:25.134Z,4.13
2022-12-08T04:20:28.036Z,4.34
2022-12-08T04:25:30.941Z,4.34
2022-12-08T04:30:34.619Z,4.78
2022-12-08T04:35:37.567Z,4.78
2022-12-08T04:40:40.882Z,4.95
2022-12-08T04:45:43.888Z,5.12
2022-12-08T04:50:46.994Z,5.21
2022-12-08T04:55:50.517Z,5.22
2022-12-08T05:00:53.613Z,5.32
2022-12-08T05:05:56.628Z,5.67
2022-12-08T05:11:07.917Z,5.62
2022-12-08T05:16:13.773Z,5.61
2022-12-08T05:21:16.914Z,5.76
2022-12-08T05:26:20.328Z,5.51
2022-12-08T05:31:23.501Z,5.43
2022-12-08T05:36:26.647Z,5.53
2022-12-08T05:41:29.760Z,5.83
2022-12-08T05:46:32.970Z,5.62
2022-12-08T05:51:35.976Z,5.82
2022-12-08T05:56:38.982Z,5.75
2022-12-08T06:01:42.789Z,5.83
2022-12-08T06:06:46.019Z,6.03
2022-12-08T06:11:49.330Z,5.90
2022-12-08T06:16:52.661Z,5.65
2022-12-08T06:21:55.693Z,5.88
2022-12-08T06:26:58.661Z,5.76
2022-12-08T06:32:01.836Z,5.68
2022-12-08T06:37:04.874Z,5.59
2022-12-08T06:42:26.487Z,5.54
2022-12-08T06:47:29.523Z,4.44
2022-12-08T06:52:32.733Z,4.35
2022-12-08T06:57:35.844Z,4.62
2022-12-08T07:02:39.048Z,4.84
2022-12-08T07:07:42.408Z,5.12
2022-12-08T07:12:45.890Z,5.27
2022-12-08T07:17:49.755Z,5.59
2022-12-08T07:22:54.867Z,5.19
2022-12-08T07:27:57.881Z,4.22
2022-12-08T07:33:03.544Z,4.88
2022-12-08T07:38:10.917Z,5.07
2022-12-08T07:43:13.863Z,5.28
2022-12-08T07:48:17.454Z,5.06
2022-12-08T07:53:20.421Z,4.10
2022-12-08T07:58:23.598Z,4.91
2022-12-08T08:03:26.803Z,5.31
2022-12-08T08:08:30.277Z,5.50
2022-12-08T08:13:33.438Z,5.76
2022-12-08T08:18:37.903Z,4.84
2022-12-08T08:23:41.086Z,4.17
2022-12-08T08:28:45.937Z,5.26
2022-12-08T08:33:49.864Z,5.63
2022-12-08T08:38:52.972Z,4.94
2022-12-08T08:43:55.979Z,4.15
2022-12-08T08:48:59.275Z,4.73
2022-12-08T08:54:02.300Z,5.29
2022-12-08T08:59:05.511Z,5.02
2022-12-08T09:04:10.421Z,4.17
2022-12-08T09:09:13.573Z,4.85
2022-12-08T09:14:16.682Z,4.82
2022-12-08T09:19:20.101Z,3.96
2022-12-08T09:24:23.403Z,4.64
2022-12-08T09:29:31.093Z,4.85
2022-12-08T09:34:37.507Z,4.01
2022-12-08T09:39:40.617Z,4.55
2022-12-08T09:44:52.428Z,4.42
2022-12-08T09:49:59.312Z,3.46
2022-12-08T09:55:10.121Z,5.04
2022-12-08T10:00:14.610Z,4.00
2022-12-08T10:05:17.617Z,3.22
2022-12-08T10:10:32.242Z,4.96
2022-12-08T10:15:48.329Z,4.03
2022-12-08T10:20:52.895Z,3.70
2022-12-08T10:26:01.943Z,3.60
2022-12-08T10:31:05.307Z,3.66
2022-12-08T10:36:11.442Z,4.58
2022-12-08T10:41:18.191Z,5.01
2022-12-08T10:46:26.073Z,4.52
2022-12-08T10:51:33.319Z,6.82
2022-12-08T10:56:36.297Z,5.68
2022-12-08T11:01:41.531Z,4.42
2022-12-08T11:06:45.647Z,5.36
2022-12-08T11:11:54.807Z,4.32
2022-12-08T11:17:17.069Z,4.96
2022-12-08T11:22:25.709Z,3.87
2022-12-08T11:27:29.021Z,4.36
2022-12-08T11:32:32.130Z,4.91
2022-12-08T11:37:41.280Z,4.93
2022-12-08T11:43:09.779Z,3.93
2022-12-08T11:48:19.575Z,4.53
2022-12-08T11:53:53.788Z,4.93
2022-12-08T11:59:02.328Z,4.35
2022-12-08T12:04:29.907Z,4.03
2022-12-08T12:10:00.765Z,4.76
2022-12-08T12:15:31.231Z,4.21
2022-12-08T12:20:42.617Z,3.76
2022-12-08T12:25:58.232Z,4.46
2022-12-08T12:31:06.624Z,4.47
2022-12-08T12:36:11.241Z,4.36
2022-12-08T12:41:19.737Z,4.36
2022-12-08T12:46:25.670Z,4.28
2022-12-08T12:51:42.364Z,4.35
2022-12-08T12:56:49.948Z,4.55
2022-12-08T13:01:55.927Z,4.36
2022-12-08T13:06:59.852Z,4.20
2022-12-08T13:12:12.587Z,4.28
2022-12-08T13:17:31.232Z,4.41
2022-12-08T13:22:54.036Z,4.45
2022-12-08T13:27:57.238Z,4.40
2022-12-08T13:33:18.431Z,4.41
2022-12-08T13:38:28.240Z,4.44
2022-12-08T13:43:51.325Z,4.18
2022-12-08T14:00:02.593Z,4.03
2022-12-08T14:05:18.161Z,3.93
2022-12-08T14:10:30.720Z,3.91
2022-12-08T14:15:38.417Z,4.12
2022-12-08T14:21:18.883Z,4.31
2022-12-08T14:26:06.117Z,4.48
2022-12-08T14:31:14.116Z,4.79
2022-12-08T14:36:20.231Z,4.92
2022-12-08T14:41:32.161Z,5.01
2022-12-08T14:46:35.221Z,4.99
2022-12-08T14:51:40.244Z,5.20
2022-12-08T14:56:54.894Z,5.26
2022-12-08T15:02:16.052Z,5.15
2022-12-08T15:07:23.786Z,5.20
2022-12-08T15:12:31.921Z,5.46
2022-12-08T15:17:36.443Z,5.59
2022-12-08T15:22:39.553Z,5.75
2022-12-08T15:27:50.203Z,5.92
2022-12-08T15:32:54.472Z,6.10
2022-12-08T15:37:57.544Z,5.98
2022-12-08T15:43:00.589Z,6.01
2022-12-08T15:48:04.102Z,5.96
2022-12-08T15:53:10.507Z,5.63
2022-12-08T16:09:37.106Z,5.91
2022-12-08T16:20:07.373Z,6.32
2022-12-08T16:25:21.768Z,6.22
2022-12-08T16:30:25.693Z,6.39
2022-12-08T16:35:29.128Z,6.41
2022-12-08T16:40:32.548Z,6.33
2022-12-08T16:45:41.513Z,6.38
2022-12-08T16:50:47.976Z,6.26
2022-12-08T16:55:51.394Z,6.14
2022-12-08T17:00:54.688Z,6.01
2022-12-08T17:05:58.330Z,5.89
2022-12-08T17:11:11.981Z,5.86
2022-12-08T17:16:19.377Z,5.79
2022-12-08T17:21:22.501Z,5.70
2022-12-08T17:26:25.547Z,5.91
2022-12-08T17:31:30.803Z,5.63
2022-12-08T17:36:34.387Z,5.92
2022-12-08T17:41:37.800Z,5.84
2022-12-08T17:46:46.383Z,5.71
2022-12-08T17:51:56.305Z,5.79
2022-12-08T17:56:59.618Z,5.67
2022-12-08T18:02:04.500Z,5.53
2022-12-08T18:07:07.600Z,5.50
2022-12-08T18:12:10.702Z,5.38
2022-12-08T18:17:14.857Z,5.59
2022-12-08T18:22:17.826Z,5.57
2022-12-08T18:27:20.832Z,5.67
2022-12-08T18:32:23.944Z,5.78
2022-12-08T18:37:27.149Z,5.72
2022-12-08T18:42:30.266Z,5.64
2022-12-08T18:47:40.440Z,5.65
2022-12-08T18:52:45.406Z,5.85
2022-12-08T18:57:49.013Z,5.92
2022-12-08T19:02:52.165Z,5.95
2022-12-08T19:07:55.414Z,6.03
2022-12-08T19:12:58.549Z,6.13
2022-12-08T19:18:02.057Z,6.22
2022-12-08T19:23:05.178Z,6.29
2022-12-08T19:28:08.299Z,6.19
2022-12-08T19:33:11.697Z,5.71
2022-12-08T19:38:15.540Z,5.71
2022-12-08T19:43:40.107Z,5.85
2022-12-08T19:48:43.768Z,5.86
2022-12-08T19:53:47.982Z,5.98
2022-12-08T19:58:51.207Z,5.87
2022-12-08T20:03:54.312Z,5.95
2022-12-08T20:08:57.523Z,6.20
2022-12-08T20:14:00.527Z,6.18
2022-12-08T20:19:04.430Z,6.27
2022-12-08T20:24:07.882Z,6.10
2022-12-08T20:29:11.905Z,6.15
2022-12-08T20:34:16.423Z,6.35
2022-12-08T20:39:19.566Z,6.35
2022-12-08T20:44:22.683Z,6.39
2022-12-08T20:49:29.834Z,6.23
2022-12-08T20:54:38.173Z,6.50
2022-12-08T20:59:41.225Z,6.41
2022-12-08T21:04:44.737Z,6.30
2022-12-08T21:09:48.042Z,5.98
2022-12-08T21:14:51.502Z,6.16
2022-12-08T21:19:54.863Z,6.13
2022-12-08T21:24:57.952Z,6.31
2022-12-08T21:30:01.121Z,6.22
2022-12-08T21:35:05.365Z,6.42
2022-12-08T21:40:09.422Z,6.65
2022-12-08T21:45:15.586Z,6.56
2022-12-08T21:50:19.014Z,6.47
2022-12-08T21:55:23.930Z,6.53
2022-12-08T22:00:27.051Z,6.59
2022-12-08T22:05:30.248Z,6.63
2022-12-08T22:10:33.629Z,6.82
2022-12-08T22:15:36.740Z,6.93
2022-12-08T22:20:43.917Z,7.03
2022-12-08T22:26:01.736Z,7.03
2022-12-08T22:31:12.917Z,7.10
2022-12-08T22:36:19.815Z,7.14
2022-12-08T22:41:23.849Z,7.19
2022-12-08T22:46:27.984Z,7.20
2022-12-08T22:51:31.024Z,7.24
2022-12-08T22:56:34.096Z,7.28
2022-12-08T23:01:37.078Z,7.24
2022-12-08T23:06:40.101Z,7.19
2022-12-08T23:11:44.207Z,7.22
2022-12-08T23:16:47.691Z,7.33
2022-12-08T23:21:50.887Z,7.38
2022-12-08T23:26:54.048Z,7.48
2022-12-08T23:31:57.394Z,7.51
2022-12-08T23:37:00.586Z,7.54
2022-12-08T23:42:04.112Z,7.54
2022-12-08T23:47:07.370Z,7.54
2022-12-08T23:52:13.765Z,7.49
2022-12-08T23:57:17.425Z,7.42
